Albion, Arkansas
Current Conditions -  °F | °C
As of 4:56 PM on Monday 22 Dec 2014 (Local Time) from KSRC Reporting Station
Light Rain Light Rain  
Wind Chill: 54°   Ceiling: 800
Heat Index: 54°   Visibility: 4mi
Dew Point: 53°   Wind: 3mph
Humidity: 97%   Direction: 220°SW
Pressure: 29.61"   Gusts: NA
Location:  35.2662°N, 91.8491°W
Report Text: KSRC 222256Z AUTO 22003KT 4SM -RA BR OVC008 12/12 A2961 RMK AO2 RAB35 CIG 006V010 SLP033 P0001 T01220117 TSNO
Loading
Personal Weather Stations






























Interactive Weather Map New forecast layout! Learn more

10-Day Weather Forecast

Advertisements
Track Severe Weather on mobile